sensor_id;sensor_type;location;lat;lon;timestamp;P1;durP1;ratioP1;P2;durP2;ratioP2
32242;SDS011;18731;42.830;24.390;2022-09-03T03:01:29;3.78;;;0.50;;
32242;SDS011;18731;42.830;24.390;2022-09-03T03:03:55;8.48;;;0.52;;
32242;SDS011;18731;42.830;24.390;2022-09-03T03:06:21;0.80;;;0.50;;
32242;SDS011;18731;42.830;24.390;2022-09-03T03:08:48;3.22;;;0.45;;
32242;SDS011;18731;42.830;24.390;2022-09-03T03:11:15;2.53;;;0.45;;
32242;SDS011;18731;42.830;24.390;2022-09-03T03:13:44;0.40;;;0.40;;
32242;SDS011;18731;42.830;24.390;2022-09-03T03:16:12;2.92;;;0.30;;
32242;SDS011;18731;42.830;24.390;2022-09-03T03:18:40;2.67;;;0.38;;
32242;SDS011;18731;42.830;24.390;2022-09-03T03:21:06;1.17;;;0.28;;
32242;SDS011;18731;42.830;24.390;2022-09-03T03:23:34;0.82;;;0.40;;
32242;SDS011;18731;42.830;24.390;2022-09-03T03:26:03;1.80;;;0.32;;
32242;SDS011;18731;42.830;24.390;2022-09-03T03:28:31;3.80;;;0.55;;
32242;SDS011;18731;42.830;24.390;2022-09-03T03:31:04;0.65;;;0.35;;
32242;SDS011;18731;42.830;24.390;2022-09-03T03:33:40;1.05;;;0.43;;
32242;SDS011;18731;42.830;24.390;2022-09-03T03:36:07;3.08;;;0.50;;
32242;SDS011;18731;42.830;24.390;2022-09-03T03:38:35;1.67;;;0.60;;
32242;SDS011;18731;42.830;24.390;2022-09-03T03:41:09;1.27;;;0.50;;
32242;SDS011;18731;42.830;24.390;2022-09-03T03:43:36;8.18;;;1.08;;
32242;SDS011;18731;42.830;24.390;2022-09-03T03:46:02;1.23;;;0.90;;
32242;SDS011;18731;42.830;24.390;2022-09-03T03:48:29;2.45;;;0.73;;
32242;SDS011;18731;42.830;24.390;2022-09-03T03:50:59;4.93;;;1.00;;
32242;SDS011;18731;42.830;24.390;2022-09-03T03:53:27;2.83;;;1.13;;
32242;SDS011;18731;42.830;24.390;2022-09-03T03:55:53;3.05;;;1.10;;
32242;SDS011;18731;42.830;24.390;2022-09-03T03:58:23;3.58;;;1.33;;
32242;SDS011;18731;42.830;24.390;2022-09-03T04:00:50;2.38;;;1.40;;
32242;SDS011;18731;42.830;24.390;2022-09-03T04:03:17;6.25;;;2.20;;
32242;SDS011;18731;42.830;24.390;2022-09-03T04:05:53;3.95;;;2.13;;
32242;SDS011;18731;42.830;24.390;2022-09-03T04:08:24;3.28;;;2.10;;
32242;SDS011;18731;42.830;24.390;2022-09-03T04:10:50;7.28;;;2.85;;
32242;SDS011;18731;42.830;24.390;2022-09-03T04:13:16;5.20;;;2.67;;
32242;SDS011;18731;42.830;24.390;2022-09-03T04:15:42;4.25;;;2.60;;
32242;SDS011;18731;42.830;24.390;2022-09-03T04:18:08;5.43;;;2.80;;
32242;SDS011;18731;42.830;24.390;2022-09-03T04:20:36;6.68;;;2.80;;
32242;SDS011;18731;42.830;24.390;2022-09-03T04:23:03;4.97;;;3.00;;
32242;SDS011;18731;42.830;24.390;2022-09-03T04:25:30;4.25;;;2.50;;
32242;SDS011;18731;42.830;24.390;2022-09-03T04:27:56;7.85;;;2.72;;
32242;SDS011;18731;42.830;24.390;2022-09-03T04:30:22;6.20;;;2.88;;
32242;SDS011;18731;42.830;24.390;2022-09-03T04:32:50;6.68;;;2.83;;
32242;SDS011;18731;42.830;24.390;2022-09-03T04:35:19;6.35;;;2.88;;
32242;SDS011;18731;42.830;24.390;2022-09-03T04:37:49;6.72;;;3.15;;
32242;SDS011;18731;42.830;24.390;2022-09-03T04:40:16;8.15;;;3.65;;
32242;SDS011;18731;42.830;24.390;2022-09-03T04:42:42;8.48;;;3.67;;
32242;SDS011;18731;42.830;24.390;2022-09-03T04:45:08;7.20;;;3.25;;
32242;SDS011;18731;42.830;24.390;2022-09-03T04:47:34;8.98;;;3.63;;
32242;SDS011;18731;42.830;24.390;2022-09-03T04:50:03;6.63;;;3.05;;
32242;SDS011;18731;42.830;24.390;2022-09-03T04:52:30;7.70;;;3.13;;
32242;SDS011;18731;42.830;24.390;2022-09-03T04:54:56;3.92;;;2.78;;
32242;SDS011;18731;42.830;24.390;2022-09-03T04:57:22;5.95;;;3.17;;
32242;SDS011;18731;42.830;24.390;2022-09-03T04:59:48;3.90;;;3.17;;
32242;SDS011;18731;42.830;24.390;2022-09-03T05:02:14;4.30;;;2.70;;
32242;SDS011;18731;42.830;24.390;2022-09-03T05:04:40;3.90;;;2.90;;
32242;SDS011;18731;42.830;24.390;2022-09-03T05:07:07;3.63;;;2.70;;
32242;SDS011;18731;42.830;24.390;2022-09-03T05:09:33;6.00;;;3.35;;
32242;SDS011;18731;42.830;24.390;2022-09-03T05:11:59;5.40;;;2.88;;
32242;SDS011;18731;42.830;24.390;2022-09-03T05:14:25;10.57;;;2.60;;
32242;SDS011;18731;42.830;24.390;2022-09-03T05:16:50;6.72;;;2.28;;
32242;SDS011;18731;42.830;24.390;2022-09-03T05:19:17;7.45;;;2.80;;
32242;SDS011;18731;42.830;24.390;2022-09-03T05:21:43;5.15;;;3.00;;
32242;SDS011;18731;42.830;24.390;2022-09-03T05:24:08;11.05;;;3.03;;
32242;SDS011;18731;42.830;24.390;2022-09-03T05:26:37;7.88;;;3.35;;
32242;SDS011;18731;42.830;24.390;2022-09-03T05:29:04;7.30;;;3.25;;
32242;SDS011;18731;42.830;24.390;2022-09-03T05:31:37;3.60;;;2.67;;
32242;SDS011;18731;42.830;24.390;2022-09-03T05:34:03;4.53;;;2.95;;
32242;SDS011;18731;42.830;24.390;2022-09-03T05:36:34;5.47;;;3.30;;
32242;SDS011;18731;42.830;24.390;2022-09-03T05:39:03;6.78;;;3.80;;
32242;SDS011;18731;42.830;24.390;2022-09-03T05:41:29;5.75;;;4.40;;
32242;SDS011;18731;42.830;24.390;2022-09-03T05:43:57;6.22;;;4.57;;
32242;SDS011;18731;42.830;24.390;2022-09-03T05:46:27;9.93;;;4.82;;
32242;SDS011;18731;42.830;24.390;2022-09-03T05:48:56;8.15;;;5.28;;
32242;SDS011;18731;42.830;24.390;2022-09-03T05:51:23;8.15;;;5.05;;
32242;SDS011;18731;42.830;24.390;2022-09-03T05:53:49;8.00;;;5.05;;
32242;SDS011;18731;42.830;24.390;2022-09-03T05:56:21;5.28;;;3.67;;
32242;SDS011;18731;42.830;24.390;2022-09-03T05:58:49;10.85;;;4.45;;
32242;SDS011;18731;42.830;24.390;2022-09-03T06:01:18;5.50;;;4.10;;
32242;SDS011;18731;42.830;24.390;2022-09-03T06:03:52;9.40;;;3.85;;
32242;SDS011;18731;42.830;24.390;2022-09-03T06:06:19;7.90;;;4.22;;
32242;SDS011;18731;42.830;24.390;2022-09-03T06:08:50;4.28;;;3.05;;
32242;SDS011;18731;42.830;24.390;2022-09-03T06:11:16;3.72;;;2.58;;
32242;SDS011;18731;42.830;24.390;2022-09-03T06:13:42;5.30;;;3.58;;
32242;SDS011;18731;42.830;24.390;2022-09-03T06:16:08;9.82;;;5.32;;
32242;SDS011;18731;42.830;24.390;2022-09-03T06:18:34;7.93;;;4.75;;
32242;SDS011;18731;42.830;24.390;2022-09-03T06:21:03;16.27;;;4.97;;
32242;SDS011;18731;42.830;24.390;2022-09-03T06:23:32;6.88;;;3.53;;
32242;SDS011;18731;42.830;24.390;2022-09-03T06:26:06;5.35;;;2.65;;
32242;SDS011;18731;42.830;24.390;2022-09-03T06:28:38;6.63;;;2.40;;
32242;SDS011;18731;42.830;24.390;2022-09-03T06:31:06;3.22;;;2.30;;
32242;SDS011;18731;42.830;24.390;2022-09-03T06:33:33;3.83;;;2.30;;
32242;SDS011;18731;42.830;24.390;2022-09-03T06:36:01;7.65;;;3.20;;
32242;SDS011;18731;42.830;24.390;2022-09-03T06:38:30;5.10;;;3.40;;
32242;SDS011;18731;42.830;24.390;2022-09-03T06:41:00;5.50;;;2.50;;
32242;SDS011;18731;42.830;24.390;2022-09-03T06:43:29;4.18;;;2.70;;
32242;SDS011;18731;42.830;24.390;2022-09-03T06:46:00;4.25;;;2.85;;
32242;SDS011;18731;42.830;24.390;2022-09-03T06:48:29;5.80;;;2.97;;
32242;SDS011;18731;42.830;24.390;2022-09-03T06:50:57;3.78;;;2.63;;
32242;SDS011;18731;42.830;24.390;2022-09-03T06:53:28;3.75;;;2.38;;
32242;SDS011;18731;42.830;24.390;2022-09-03T06:55:57;3.53;;;2.47;;
32242;SDS011;18731;42.830;24.390;2022-09-03T06:58:29;7.63;;;3.30;;
32242;SDS011;18731;42.830;24.390;2022-09-03T07:01:03;3.33;;;2.78;;
32242;SDS011;18731;42.830;24.390;2022-09-03T07:03:34;3.38;;;2.78;;
32242;SDS011;18731;42.830;24.390;2022-09-03T07:06:01;6.50;;;2.90;;
32242;SDS011;18731;42.830;24.390;2022-09-03T07:08:29;3.67;;;2.63;;
32242;SDS011;18731;42.830;24.390;2022-09-03T07:10:57;3.75;;;2.30;;
32242;SDS011;18731;42.830;24.390;2022-09-03T07:13:33;2.58;;;2.20;;
32242;SDS011;18731;42.830;24.390;2022-09-03T07:16:04;2.90;;;2.20;;
32242;SDS011;18731;42.830;24.390;2022-09-03T07:18:31;5.72;;;1.92;;
32242;SDS011;18731;42.830;24.390;2022-09-03T07:20:58;4.03;;;2.25;;
32242;SDS011;18731;42.830;24.390;2022-09-03T07:23:25;4.40;;;2.20;;
32242;SDS011;18731;42.830;24.390;2022-09-03T07:25:53;2.50;;;1.98;;
32242;SDS011;18731;42.830;24.390;2022-09-03T07:28:19;3.78;;;2.88;;
32242;SDS011;18731;42.830;24.390;2022-09-03T07:30:45;3.60;;;3.08;;
32242;SDS011;18731;42.830;24.390;2022-09-03T07:33:11;2.65;;;2.45;;
32242;SDS011;18731;42.830;24.390;2022-09-03T07:35:38;4.57;;;2.47;;
32242;SDS011;18731;42.830;24.390;2022-09-03T07:38:03;5.05;;;2.70;;
32242;SDS011;18731;42.830;24.390;2022-09-03T07:40:29;10.63;;;2.80;;
32242;SDS011;18731;42.830;24.390;2022-09-03T07:42:58;4.68;;;2.63;;
32242;SDS011;18731;42.830;24.390;2022-09-03T07:45:27;4.40;;;2.78;;
32242;SDS011;18731;42.830;24.390;2022-09-03T07:47:53;5.90;;;2.80;;
32242;SDS011;18731;42.830;24.390;2022-09-03T07:50:19;2.63;;;2.42;;
32242;SDS011;18731;42.830;24.390;2022-09-03T07:52:44;3.22;;;2.30;;
32242;SDS011;18731;42.830;24.390;2022-09-03T07:55:11;2.90;;;2.60;;
32242;SDS011;18731;42.830;24.390;2022-09-03T07:57:38;3.72;;;2.33;;
32242;SDS011;18731;42.830;24.390;2022-09-03T08:00:04;3.40;;;2.40;;
32242;SDS011;18731;42.830;24.390;2022-09-03T08:02:36;3.00;;;2.70;;
32242;SDS011;18731;42.830;24.390;2022-09-03T08:05:01;4.68;;;2.05;;
32242;SDS011;18731;42.830;24.390;2022-09-03T08:07:28;2.63;;;2.38;;
32242;SDS011;18731;42.830;24.390;2022-09-03T08:09:55;7.40;;;2.40;;
32242;SDS011;18731;42.830;24.390;2022-09-03T08:12:21;4.18;;;2.55;;
32242;SDS011;18731;42.830;24.390;2022-09-03T08:14:46;3.00;;;2.70;;
32242;SDS011;18731;42.830;24.390;2022-09-03T08:17:12;2.45;;;2.22;;
32242;SDS011;18731;42.830;24.390;2022-09-03T08:19:38;3.50;;;2.50;;
32242;SDS011;18731;42.830;24.390;2022-09-03T08:22:05;3.45;;;2.25;;
32242;SDS011;18731;42.830;24.390;2022-09-03T08:24:30;5.13;;;2.88;;
32242;SDS011;18731;42.830;24.390;2022-09-03T08:26:58;6.90;;;2.88;;
32242;SDS011;18731;42.830;24.390;2022-09-03T08:29:23;2.78;;;2.58;;
32242;SDS011;18731;42.830;24.390;2022-09-03T08:31:49;5.30;;;3.03;;
32242;SDS011;18731;42.830;24.390;2022-09-03T08:34:15;5.10;;;2.85;;
32242;SDS011;18731;42.830;24.390;2022-09-03T08:36:41;3.42;;;2.50;;
32242;SDS011;18731;42.830;24.390;2022-09-03T08:39:08;4.82;;;3.05;;
32242;SDS011;18731;42.830;24.390;2022-09-03T08:49:19;3.10;;;2.72;;
32242;SDS011;18731;42.830;24.390;2022-09-03T08:51:59;3.47;;;2.78;;
32242;SDS011;18731;42.830;24.390;2022-09-03T08:54:30;2.88;;;2.58;;
32242;SDS011;18731;42.830;24.390;2022-09-03T08:56:59;3.80;;;2.83;;
32242;SDS011;18731;42.830;24.390;2022-09-03T08:59:27;3.40;;;2.70;;
32242;SDS011;18731;42.830;24.390;2022-09-03T09:01:56;3.83;;;3.00;;
32242;SDS011;18731;42.830;24.390;2022-09-03T09:04:30;3.45;;;2.83;;
32242;SDS011;18731;42.830;24.390;2022-09-03T09:18:00;3.53;;;2.55;;
32242;SDS011;18731;42.830;24.390;2022-09-03T09:23:14;5.75;;;2.50;;
32242;SDS011;18731;42.830;24.390;2022-09-03T09:25:58;2.60;;;2.40;;
32242;SDS011;18731;42.830;24.390;2022-09-03T09:28:31;5.28;;;2.65;;
32242;SDS011;18731;42.830;24.390;2022-09-03T09:31:00;3.35;;;2.35;;
32242;SDS011;18731;42.830;24.390;2022-09-03T09:33:29;3.42;;;2.50;;
32242;SDS011;18731;42.830;24.390;2022-09-03T09:35:58;2.72;;;2.40;;
32242;SDS011;18731;42.830;24.390;2022-09-03T09:38:29;3.08;;;2.78;;
32242;SDS011;18731;42.830;24.390;2022-09-03T09:41:06;4.70;;;2.55;;
32242;SDS011;18731;42.830;24.390;2022-09-03T09:43:37;3.42;;;2.33;;
32242;SDS011;18731;42.830;24.390;2022-09-03T09:46:14;5.93;;;2.50;;
32242;SDS011;18731;42.830;24.390;2022-09-03T09:48:54;3.53;;;2.53;;
32242;SDS011;18731;42.830;24.390;2022-09-03T09:51:25;3.10;;;2.05;;
32242;SDS011;18731;42.830;24.390;2022-09-03T09:56:41;3.87;;;2.03;;
32242;SDS011;18731;42.830;24.390;2022-09-03T09:59:09;3.13;;;2.25;;
32242;SDS011;18731;42.830;24.390;2022-09-03T10:01:40;5.45;;;2.38;;
32242;SDS011;18731;42.830;24.390;2022-09-03T10:04:10;2.47;;;1.90;;
32242;SDS011;18731;42.830;24.390;2022-09-03T10:06:38;5.28;;;2.60;;
32242;SDS011;18731;42.830;24.390;2022-09-03T10:09:22;4.43;;;2.55;;
32242;SDS011;18731;42.830;24.390;2022-09-03T10:14:35;4.13;;;2.90;;
32242;SDS011;18731;42.830;24.390;2022-09-03T10:17:13;6.80;;;2.90;;
32242;SDS011;18731;42.830;24.390;2022-09-03T10:20:14;3.13;;;2.83;;
32242;SDS011;18731;42.830;24.390;2022-09-03T10:28:16;5.60;;;2.70;;
32242;SDS011;18731;42.830;24.390;2022-09-03T10:31:44;2.35;;;2.15;;
32242;SDS011;18731;42.830;24.390;2022-09-03T10:36:46;3.40;;;2.50;;
32242;SDS011;18731;42.830;24.390;2022-09-03T10:48:26;5.20;;;2.50;;
32242;SDS011;18731;42.830;24.390;2022-09-03T10:51:00;4.65;;;2.88;;
32242;SDS011;18731;42.830;24.390;2022-09-03T10:56:16;4.50;;;2.78;;
32242;SDS011;18731;42.830;24.390;2022-09-03T11:07:04;2.85;;;2.50;;
32242;SDS011;18731;42.830;24.390;2022-09-03T11:09:37;3.55;;;3.05;;
32242;SDS011;18731;42.830;24.390;2022-09-03T11:12:34;3.28;;;2.88;;
32242;SDS011;18731;42.830;24.390;2022-09-03T11:15:12;4.35;;;3.20;;
32242;SDS011;18731;42.830;24.390;2022-09-03T11:17:50;3.58;;;2.78;;
32242;SDS011;18731;42.830;24.390;2022-09-03T11:20:24;3.70;;;3.38;;
32242;SDS011;18731;42.830;24.390;2022-09-03T11:22:55;4.65;;;3.28;;
32242;SDS011;18731;42.830;24.390;2022-09-03T11:25:27;9.27;;;3.42;;
32242;SDS011;18731;42.830;24.390;2022-09-03T11:28:01;5.03;;;3.22;;
32242;SDS011;18731;42.830;24.390;2022-09-03T11:33:19;6.70;;;3.20;;
32242;SDS011;18731;42.830;24.390;2022-09-03T11:35:53;3.65;;;3.20;;
32242;SDS011;18731;42.830;24.390;2022-09-03T11:38:28;5.18;;;4.20;;
32242;SDS011;18731;42.830;24.390;2022-09-03T11:43:25;5.47;;;3.58;;
32242;SDS011;18731;42.830;24.390;2022-09-03T11:46:04;4.00;;;3.60;;
32242;SDS011;18731;42.830;24.390;2022-09-03T11:48:43;5.43;;;4.43;;
32242;SDS011;18731;42.830;24.390;2022-09-03T11:51:20;4.75;;;4.10;;
32242;SDS011;18731;42.830;24.390;2022-09-03T11:53:59;7.60;;;4.20;;
32242;SDS011;18731;42.830;24.390;2022-09-03T11:56:26;7.90;;;4.72;;
32242;SDS011;18731;42.830;24.390;2022-09-03T12:04:06;5.97;;;5.05;;
32242;SDS011;18731;42.830;24.390;2022-09-03T12:09:20;6.45;;;5.03;;
32242;SDS011;18731;42.830;24.390;2022-09-03T12:15:07;10.48;;;5.78;;
32242;SDS011;18731;42.830;24.390;2022-09-03T12:18:18;6.78;;;5.40;;
32242;SDS011;18731;42.830;24.390;2022-09-03T12:20:43;6.30;;;5.32;;
32242;SDS011;18731;42.830;24.390;2022-09-03T12:23:11;5.85;;;5.10;;
32242;SDS011;18731;42.830;24.390;2022-09-03T12:25:45;6.50;;;5.38;;
32242;SDS011;18731;42.830;24.390;2022-09-03T12:28:12;5.82;;;4.97;;
32242;SDS011;18731;42.830;24.390;2022-09-03T12:30:43;6.28;;;5.55;;
32242;SDS011;18731;42.830;24.390;2022-09-03T12:33:10;11.75;;;5.32;;
32242;SDS011;18731;42.830;24.390;2022-09-03T12:35:41;7.43;;;4.65;;
32242;SDS011;18731;42.830;24.390;2022-09-03T12:38:07;6.45;;;5.32;;
32242;SDS011;18731;42.830;24.390;2022-09-03T12:40:33;6.25;;;5.05;;
32242;SDS011;18731;42.830;24.390;2022-09-03T12:43:14;11.10;;;5.53;;
32242;SDS011;18731;42.830;24.390;2022-09-03T12:45:45;5.03;;;4.53;;
32242;SDS011;18731;42.830;24.390;2022-09-03T12:48:16;8.50;;;5.05;;
32242;SDS011;18731;42.830;24.390;2022-09-03T12:50:44;6.75;;;5.47;;
32242;SDS011;18731;42.830;24.390;2022-09-03T12:53:20;5.93;;;5.32;;
32242;SDS011;18731;42.830;24.390;2022-09-03T12:55:50;8.10;;;5.28;;
32242;SDS011;18731;42.830;24.390;2022-09-03T12:58:22;9.35;;;5.85;;
32242;SDS011;18731;42.830;24.390;2022-09-03T13:03:30;6.18;;;5.57;;
32242;SDS011;18731;42.830;24.390;2022-09-03T13:06:09;5.97;;;5.38;;
32242;SDS011;18731;42.830;24.390;2022-09-03T13:08:51;6.72;;;5.57;;
32242;SDS011;18731;42.830;24.390;2022-09-03T13:11:26;8.07;;;5.28;;
32242;SDS011;18731;42.830;24.390;2022-09-03T13:13:54;6.93;;;5.97;;
32242;SDS011;18731;42.830;24.390;2022-09-03T13:33:22;9.65;;;6.03;;
32242;SDS011;18731;42.830;24.390;2022-09-03T13:36:08;7.05;;;6.03;;
32242;SDS011;18731;42.830;24.390;2022-09-03T13:38:57;9.15;;;6.55;;
32242;SDS011;18731;42.830;24.390;2022-09-03T13:41:47;9.60;;;6.88;;
32242;SDS011;18731;42.830;24.390;2022-09-03T13:44:21;9.38;;;7.30;;
32242;SDS011;18731;42.830;24.390;2022-09-03T13:47:06;8.25;;;7.20;;
32242;SDS011;18731;42.830;24.390;2022-09-03T13:50:09;11.65;;;6.82;;
32242;SDS011;18731;42.830;24.390;2022-09-03T13:55:47;10.25;;;7.97;;
32242;SDS011;18731;42.830;24.390;2022-09-03T13:58:18;9.57;;;7.57;;
32242;SDS011;18731;42.830;24.390;2022-09-03T14:03:33;9.73;;;8.32;;
32242;SDS011;18731;42.830;24.390;2022-09-03T14:09:02;8.88;;;7.70;;
32242;SDS011;18731;42.830;24.390;2022-09-03T14:22:52;12.02;;;7.32;;
32242;SDS011;18731;42.830;24.390;2022-09-03T14:25:20;10.98;;;8.25;;
32242;SDS011;18731;42.830;24.390;2022-09-03T14:27:48;11.82;;;7.18;;
32242;SDS011;18731;42.830;24.390;2022-09-03T14:38:21;12.68;;;7.63;;
32242;SDS011;18731;42.830;24.390;2022-09-03T14:54:58;10.35;;;7.82;;
32242;SDS011;18731;42.830;24.390;2022-09-03T15:11:54;14.00;;;8.05;;
32242;SDS011;18731;42.830;24.390;2022-09-03T15:30:49;10.85;;;8.77;;
32242;SDS011;18731;42.830;24.390;2022-09-03T15:33:34;10.50;;;8.60;;
32242;SDS011;18731;42.830;24.390;2022-09-03T15:36:17;12.45;;;9.25;;
32242;SDS011;18731;42.830;24.390;2022-09-03T15:39:04;11.23;;;9.20;;
32242;SDS011;18731;42.830;24.390;2022-09-03T15:44:50;16.10;;;8.50;;
32242;SDS011;18731;42.830;24.390;2022-09-03T15:47:30;10.70;;;8.73;;
32242;SDS011;18731;42.830;24.390;2022-09-03T15:53:12;12.55;;;9.38;;
32242;SDS011;18731;42.830;24.390;2022-09-03T15:56:00;17.02;;;8.77;;
32242;SDS011;18731;42.830;24.390;2022-09-03T15:58:37;13.95;;;8.43;;
32242;SDS011;18731;42.830;24.390;2022-09-03T16:04:02;12.07;;;9.55;;
32242;SDS011;18731;42.830;24.390;2022-09-03T16:12:09;18.70;;;9.88;;
32242;SDS011;18731;42.830;24.390;2022-09-03T16:15:03;11.15;;;8.52;;
32242;SDS011;18731;42.830;24.390;2022-09-03T16:20:45;16.05;;;9.25;;
32242;SDS011;18731;42.830;24.390;2022-09-03T16:23:44;12.60;;;9.05;;
32242;SDS011;18731;42.830;24.390;2022-09-03T16:26:19;14.50;;;9.48;;
32242;SDS011;18731;42.830;24.390;2022-09-03T16:34:44;13.98;;;9.52;;
32242;SDS011;18731;42.830;24.390;2022-09-03T16:45:29;14.50;;;10.02;;
32242;SDS011;18731;42.830;24.390;2022-09-03T16:50:54;18.35;;;9.98;;
32242;SDS011;18731;42.830;24.390;2022-09-03T16:53:25;20.52;;;11.30;;
32242;SDS011;18731;42.830;24.390;2022-09-03T17:10:51;18.17;;;9.85;;
32242;SDS011;18731;42.830;24.390;2022-09-03T17:19:51;19.67;;;11.07;;
32242;SDS011;18731;42.830;24.390;2022-09-03T17:28:14;14.57;;;10.07;;
32242;SDS011;18731;42.830;24.390;2022-09-03T17:30:55;19.85;;;11.38;;
32242;SDS011;18731;42.830;24.390;2022-09-03T17:33:25;22.52;;;11.90;;
32242;SDS011;18731;42.830;24.390;2022-09-03T17:36:18;20.65;;;11.48;;
32242;SDS011;18731;42.830;24.390;2022-09-03T17:58:30;25.10;;;11.30;;
32242;SDS011;18731;42.830;24.390;2022-09-03T18:01:04;15.07;;;10.70;;
32242;SDS011;18731;42.830;24.390;2022-09-03T18:03:44;22.50;;;10.40;;
32242;SDS011;18731;42.830;24.390;2022-09-03T18:06:18;16.67;;;9.90;;
32242;SDS011;18731;42.830;24.390;2022-09-03T18:08:48;23.52;;;11.38;;
32242;SDS011;18731;42.830;24.390;2022-09-03T18:22:48;25.52;;;12.20;;
32242;SDS011;18731;42.830;24.390;2022-09-03T18:25:39;21.02;;;11.70;;
32242;SDS011;18731;42.830;24.390;2022-09-03T18:28:45;24.70;;;11.50;;
32242;SDS011;18731;42.830;24.390;2022-09-03T18:31:33;18.90;;;11.25;;
32242;SDS011;18731;42.830;24.390;2022-09-03T18:34:18;26.67;;;11.45;;
32242;SDS011;18731;42.830;24.390;2022-09-03T18:37:04;20.98;;;11.45;;
32242;SDS011;18731;42.830;24.390;2022-09-03T18:39:49;21.13;;;11.73;;
32242;SDS011;18731;42.830;24.390;2022-09-03T18:42:49;29.42;;;11.43;;
32242;SDS011;18731;42.830;24.390;2022-09-03T18:48:35;23.52;;;12.23;;
32242;SDS011;18731;42.830;24.390;2022-09-03T18:51:31;26.27;;;11.65;;
32242;SDS011;18731;42.830;24.390;2022-09-03T18:57:33;25.92;;;13.48;;
32242;SDS011;18731;42.830;24.390;2022-09-03T19:00:45;26.38;;;13.07;;
32242;SDS011;18731;42.830;24.390;2022-09-03T19:03:45;19.65;;;11.55;;
32242;SDS011;18731;42.830;24.390;2022-09-03T19:06:52;17.70;;;10.60;;
32242;SDS011;18731;42.830;24.390;2022-09-03T19:10:00;21.73;;;10.48;;
32242;SDS011;18731;42.830;24.390;2022-09-03T19:16:04;21.15;;;11.45;;
32242;SDS011;18731;42.830;24.390;2022-09-03T19:22:34;22.10;;;10.80;;
32242;SDS011;18731;42.830;24.390;2022-09-03T19:25:20;17.67;;;12.07;;
32242;SDS011;18731;42.830;24.390;2022-09-03T19:28:13;23.33;;;11.85;;
32242;SDS011;18731;42.830;24.390;2022-09-03T19:37:22;27.30;;;12.73;;
32242;SDS011;18731;42.830;24.390;2022-09-03T19:43:00;19.20;;;11.77;;
32242;SDS011;18731;42.830;24.390;2022-09-03T19:55:04;22.83;;;10.70;;
32242;SDS011;18731;42.830;24.390;2022-09-03T19:57:52;15.73;;;10.82;;
32242;SDS011;18731;42.830;24.390;2022-09-03T20:00:40;23.92;;;11.18;;
32242;SDS011;18731;42.830;24.390;2022-09-03T20:03:25;19.00;;;10.32;;
32242;SDS011;18731;42.830;24.390;2022-09-03T20:06:10;21.13;;;10.32;;
32242;SDS011;18731;42.830;24.390;2022-09-03T20:08:55;17.05;;;10.57;;
32242;SDS011;18731;42.830;24.390;2022-09-03T20:11:45;31.75;;;10.65;;
32242;SDS011;18731;42.830;24.390;2022-09-03T20:14:13;21.30;;;10.32;;
32242;SDS011;18731;42.830;24.390;2022-09-03T20:17:25;14.85;;;9.55;;
32242;SDS011;18731;42.830;24.390;2022-09-03T20:19:51;18.40;;;9.90;;
32242;SDS011;18731;42.830;24.390;2022-09-03T20:27:54;14.40;;;9.20;;
32242;SDS011;18731;42.830;24.390;2022-09-03T20:30:40;18.52;;;9.40;;
32242;SDS011;18731;42.830;24.390;2022-09-03T20:50:27;19.98;;;9.27;;
32242;SDS011;18731;42.830;24.390;2022-09-03T20:55:42;19.08;;;10.07;;
32242;SDS011;18731;42.830;24.390;2022-09-03T21:01:03;25.92;;;9.77;;
32242;SDS011;18731;42.830;24.390;2022-09-03T21:09:16;21.38;;;9.43;;
32242;SDS011;18731;42.830;24.390;2022-09-03T21:11:55;16.65;;;9.32;;
32242;SDS011;18731;42.830;24.390;2022-09-03T21:22:23;21.23;;;8.82;;
32242;SDS011;18731;42.830;24.390;2022-09-03T21:25:30;17.10;;;8.75;;
32242;SDS011;18731;42.830;24.390;2022-09-03T21:28:06;20.90;;;9.52;;
